Terminal Aerodrome Forecast
Issued by NWS Wilmington, OH

Current Version | Previous Version | Text Only | Print | Product List | Glossary On
Versions: 1 2 3 4 5 6 7 8 9 10 11 12 13 14 15 16 17 18 19 20 21 22 23 24
000
FTUS41 KILN 281100
TAFCVG
TAF
KCVG 281125Z 2812/2918 VRB02KT 5SM BR SKC
     FM281300 14005KT P6SM SCT250
     FM282100 13008KT P6SM OVC200
     FM290900 17011KT P6SM BKN060 OVC120
     FM291300 20011KT P6SM VCSH SCT025 OVC040
     FM291600 21011KT P6SM OVC022=

USA.gov is the U.S. government's official web portal to all federal, state and local government web resources and services.